sensor_id;sensor_type;location;lat;lon;timestamp;temperature;humidity
39881;DHT22;25554;44.954;10.068;2022-08-04T00:02:09;24.70;99.90
39881;DHT22;25554;44.954;10.068;2022-08-04T00:04:50;24.80;99.90
39881;DHT22;25554;44.954;10.068;2022-08-04T00:07:53;24.70;99.90
39881;DHT22;25554;44.954;10.068;2022-08-04T00:12:51;25.40;99.90
39881;DHT22;25554;44.954;10.068;2022-08-04T00:18:07;24.60;99.90
39881;DHT22;25554;44.954;10.068;2022-08-04T00:20:37;24.70;99.90
39881;DHT22;25554;44.954;10.068;2022-08-04T00:23:05;24.60;99.90
39881;DHT22;25554;44.954;10.068;2022-08-04T00:27:59;24.50;99.90
39881;DHT22;25554;44.954;10.068;2022-08-04T00:32:55;24.30;99.90
39881;DHT22;25554;44.954;10.068;2022-08-04T00:35:22;24.30;99.90
39881;DHT22;25554;44.954;10.068;2022-08-04T00:45:54;24.20;99.90
39881;DHT22;25554;44.954;10.068;2022-08-04T00:51:14;24.10;99.90
39881;DHT22;25554;44.954;10.068;2022-08-04T00:59:43;24.00;99.90
39881;DHT22;25554;44.954;10.068;2022-08-04T01:05:21;23.80;99.90
39881;DHT22;25554;44.954;10.068;2022-08-04T01:08:10;23.90;99.90
39881;DHT22;25554;44.954;10.068;2022-08-04T01:10:54;23.90;99.90
39881;DHT22;25554;44.954;10.068;2022-08-04T01:16:21;23.80;99.90
39881;DHT22;25554;44.954;10.068;2022-08-04T01:19:07;23.70;99.90
39881;DHT22;25554;44.954;10.068;2022-08-04T01:29:58;23.40;99.90
39881;DHT22;25554;44.954;10.068;2022-08-04T01:32:40;23.60;99.90
39881;DHT22;25554;44.954;10.068;2022-08-04T01:40:05;23.60;99.90
39881;DHT22;25554;44.954;10.068;2022-08-04T01:42:34;23.50;99.90
39881;DHT22;25554;44.954;10.068;2022-08-04T01:45:12;23.70;99.90
39881;DHT22;25554;44.954;10.068;2022-08-04T01:47:50;23.50;99.90
39881;DHT22;25554;44.954;10.068;2022-08-04T01:55:12;23.30;99.90
39881;DHT22;25554;44.954;10.068;2022-08-04T01:57:47;23.10;99.90
39881;DHT22;25554;44.954;10.068;2022-08-04T02:00:19;23.30;99.90
39881;DHT22;25554;44.954;10.068;2022-08-04T02:05:18;23.10;99.90
39881;DHT22;25554;44.954;10.068;2022-08-04T02:10:29;23.20;99.90
39881;DHT22;25554;44.954;10.068;2022-08-04T02:13:11;23.60;99.90
39881;DHT22;25554;44.954;10.068;2022-08-04T02:21:24;23.30;99.90
39881;DHT22;25554;44.954;10.068;2022-08-04T02:24:10;23.20;99.90
39881;DHT22;25554;44.954;10.068;2022-08-04T02:26:41;23.20;99.90
39881;DHT22;25554;44.954;10.068;2022-08-04T02:37:09;22.50;99.90
39881;DHT22;25554;44.954;10.068;2022-08-04T02:42:04;22.20;99.90
39881;DHT22;25554;44.954;10.068;2022-08-04T02:44:31;22.20;99.90
39881;DHT22;25554;44.954;10.068;2022-08-04T02:46:59;22.20;99.90
39881;DHT22;25554;44.954;10.068;2022-08-04T02:49:28;22.60;99.90
39881;DHT22;25554;44.954;10.068;2022-08-04T02:51:56;22.20;99.90
39881;DHT22;25554;44.954;10.068;2022-08-04T02:54:39;23.40;99.90
39881;DHT22;25554;44.954;10.068;2022-08-04T02:57:10;21.90;99.90
39881;DHT22;25554;44.954;10.068;2022-08-04T03:03:02;22.40;99.90
39881;DHT22;25554;44.954;10.068;2022-08-04T03:05:30;22.40;99.90
39881;DHT22;25554;44.954;10.068;2022-08-04T03:11:27;22.40;99.90
39881;DHT22;25554;44.954;10.068;2022-08-04T03:30:19;22.30;99.90
39881;DHT22;25554;44.954;10.068;2022-08-04T03:33:13;22.20;99.90
39881;DHT22;25554;44.954;10.068;2022-08-04T03:39:01;22.20;99.90
39881;DHT22;25554;44.954;10.068;2022-08-04T03:49:38;22.00;99.90
39881;DHT22;25554;44.954;10.068;2022-08-04T04:12:06;21.80;99.90
39881;DHT22;25554;44.954;10.068;2022-08-04T04:25:41;22.00;99.90
39881;DHT22;25554;44.954;10.068;2022-08-04T04:34:07;22.10;99.90
39881;DHT22;25554;44.954;10.068;2022-08-04T04:37:04;21.80;99.90
39881;DHT22;25554;44.954;10.068;2022-08-04T04:49:50;22.00;99.90
39881;DHT22;25554;44.954;10.068;2022-08-04T04:52:35;22.20;99.90
39881;DHT22;25554;44.954;10.068;2022-08-04T04:55:20;22.20;99.90
39881;DHT22;25554;44.954;10.068;2022-08-04T04:57:50;22.30;99.90
39881;DHT22;25554;44.954;10.068;2022-08-04T05:05:42;22.40;99.90
39881;DHT22;25554;44.954;10.068;2022-08-04T05:11:24;20.90;99.90
39881;DHT22;25554;44.954;10.068;2022-08-04T05:14:08;24.30;99.90
39881;DHT22;25554;44.954;10.068;2022-08-04T05:16:40;22.90;99.90
39881;DHT22;25554;44.954;10.068;2022-08-04T05:19:43;22.90;99.90
39881;DHT22;25554;44.954;10.068;2022-08-04T05:24:32;23.00;99.90
39881;DHT22;25554;44.954;10.068;2022-08-04T05:27:02;23.20;99.90
39881;DHT22;25554;44.954;10.068;2022-08-04T05:29:34;23.30;99.90
39881;DHT22;25554;44.954;10.068;2022-08-04T05:32:04;23.30;99.90
39881;DHT22;25554;44.954;10.068;2022-08-04T05:34:41;23.40;99.90
39881;DHT22;25554;44.954;10.068;2022-08-04T05:37:13;23.50;99.90
39881;DHT22;25554;44.954;10.068;2022-08-04T05:39:53;23.50;99.90
39881;DHT22;25554;44.954;10.068;2022-08-04T05:42:21;23.60;99.90
39881;DHT22;25554;44.954;10.068;2022-08-04T05:47:15;19.90;99.90
39881;DHT22;25554;44.954;10.068;2022-08-04T05:52:10;23.90;99.90
39881;DHT22;25554;44.954;10.068;2022-08-04T05:54:37;26.60;99.90
39881;DHT22;25554;44.954;10.068;2022-08-04T05:57:06;24.00;99.90
39881;DHT22;25554;44.954;10.068;2022-08-04T05:59:36;24.10;99.90
39881;DHT22;25554;44.954;10.068;2022-08-04T06:04:36;24.10;99.90
39881;DHT22;25554;44.954;10.068;2022-08-04T06:09:30;24.20;99.90
39881;DHT22;25554;44.954;10.068;2022-08-04T06:12:03;24.30;99.90
39881;DHT22;25554;44.954;10.068;2022-08-04T06:14:37;24.20;99.90
39881;DHT22;25554;44.954;10.068;2022-08-04T06:17:06;24.30;99.90
39881;DHT22;25554;44.954;10.068;2022-08-04T06:19:46;23.70;99.90
39881;DHT22;25554;44.954;10.068;2022-08-04T06:22:15;24.20;99.90
39881;DHT22;25554;44.954;10.068;2022-08-04T06:24:44;24.30;99.90
39881;DHT22;25554;44.954;10.068;2022-08-04T06:27:14;24.40;99.90
39881;DHT22;25554;44.954;10.068;2022-08-04T06:29:42;24.60;99.90
39881;DHT22;25554;44.954;10.068;2022-08-04T06:34:58;24.90;99.90
39881;DHT22;25554;44.954;10.068;2022-08-04T06:37:27;25.10;99.90
39881;DHT22;25554;44.954;10.068;2022-08-04T06:42:22;25.20;99.90
39881;DHT22;25554;44.954;10.068;2022-08-04T06:44:55;25.50;99.90
39881;DHT22;25554;44.954;10.068;2022-08-04T06:49:50;25.90;99.90
39881;DHT22;25554;44.954;10.068;2022-08-04T06:52:18;26.20;99.90
39881;DHT22;25554;44.954;10.068;2022-08-04T06:54:50;26.70;99.90
39881;DHT22;25554;44.954;10.068;2022-08-04T06:57:23;28.40;99.90
39881;DHT22;25554;44.954;10.068;2022-08-04T06:59:56;31.60;99.90
39881;DHT22;25554;44.954;10.068;2022-08-04T07:02:26;34.20;98.30
39881;DHT22;25554;44.954;10.068;2022-08-04T07:07:23;36.90;93.70
39881;DHT22;25554;44.954;10.068;2022-08-04T07:12:17;39.80;91.30
39881;DHT22;25554;44.954;10.068;2022-08-04T07:14:48;40.20;93.40
39881;DHT22;25554;44.954;10.068;2022-08-04T07:17:15;39.80;89.20
39881;DHT22;25554;44.954;10.068;2022-08-04T07:24:37;40.70;87.80
39881;DHT22;25554;44.954;10.068;2022-08-04T07:27:05;41.30;85.50
39881;DHT22;25554;44.954;10.068;2022-08-04T07:29:35;42.10;86.80
39881;DHT22;25554;44.954;10.068;2022-08-04T07:32:03;41.30;82.90
39881;DHT22;25554;44.954;10.068;2022-08-04T07:34:31;41.70;83.20
39881;DHT22;25554;44.954;10.068;2022-08-04T07:36:59;42.00;81.80
39881;DHT22;25554;44.954;10.068;2022-08-04T07:39:27;42.60;79.40
39881;DHT22;25554;44.954;10.068;2022-08-04T07:41:58;41.60;80.10
39881;DHT22;25554;44.954;10.068;2022-08-04T07:46:51;42.60;78.30
39881;DHT22;25554;44.954;10.068;2022-08-04T07:49:18;43.90;89.10
39881;DHT22;25554;44.954;10.068;2022-08-04T07:59:15;45.10;75.40
39881;DHT22;25554;44.954;10.068;2022-08-04T08:01:42;45.40;77.60
39881;DHT22;25554;44.954;10.068;2022-08-04T08:04:10;43.90;74.20
39881;DHT22;25554;44.954;10.068;2022-08-04T08:06:37;41.80;78.20
39881;DHT22;25554;44.954;10.068;2022-08-04T08:09:12;37.70;90.10
39881;DHT22;25554;44.954;10.068;2022-08-04T08:11:43;35.60;80.50
39881;DHT22;25554;44.954;10.068;2022-08-04T08:14:10;34.70;84.10
39881;DHT22;25554;44.954;10.068;2022-08-04T08:19:04;33.30;86.60
39881;DHT22;25554;44.954;10.068;2022-08-04T08:21:31;32.80;87.90
39881;DHT22;25554;44.954;10.068;2022-08-04T08:26:24;32.30;89.80
39881;DHT22;25554;44.954;10.068;2022-08-04T08:33:45;33.50;90.00
39881;DHT22;25554;44.954;10.068;2022-08-04T08:36:28;31.80;89.20
39881;DHT22;25554;44.954;10.068;2022-08-04T08:49:38;31.70;87.30
39881;DHT22;25554;44.954;10.068;2022-08-04T08:52:35;32.00;94.30
39881;DHT22;25554;44.954;10.068;2022-08-04T09:00:17;31.80;86.50
39881;DHT22;25554;44.954;10.068;2022-08-04T09:11:22;31.70;86.70
39881;DHT22;25554;44.954;10.068;2022-08-04T09:14:00;31.90;85.50
39881;DHT22;25554;44.954;10.068;2022-08-04T09:19:20;32.30;85.00
39881;DHT22;25554;44.954;10.068;2022-08-04T09:22:08;32.40;84.90
39881;DHT22;25554;44.954;10.068;2022-08-04T09:25:01;32.60;84.10
39881;DHT22;25554;44.954;10.068;2022-08-04T09:27:52;32.60;83.70
39881;DHT22;25554;44.954;10.068;2022-08-04T09:30:42;32.90;81.90
39881;DHT22;25554;44.954;10.068;2022-08-04T09:36:14;33.20;81.90
39881;DHT22;25554;44.954;10.068;2022-08-04T09:46:56;33.00;80.20
39881;DHT22;25554;44.954;10.068;2022-08-04T09:49:39;33.30;79.00
39881;DHT22;25554;44.954;10.068;2022-08-04T10:01:10;33.50;78.20
39881;DHT22;25554;44.954;10.068;2022-08-04T10:03:40;33.70;78.40
39881;DHT22;25554;44.954;10.068;2022-08-04T10:06:35;34.20;75.70
39881;DHT22;25554;44.954;10.068;2022-08-04T10:12:30;34.70;73.50
39881;DHT22;25554;44.954;10.068;2022-08-04T10:15:15;34.70;73.60
39881;DHT22;25554;44.954;10.068;2022-08-04T10:28:10;35.30;74.20
39881;DHT22;25554;44.954;10.068;2022-08-04T10:30:41;35.10;73.60
39881;DHT22;25554;44.954;10.068;2022-08-04T10:33:30;35.10;73.00
39881;DHT22;25554;44.954;10.068;2022-08-04T10:36:05;34.80;72.90
39881;DHT22;25554;44.954;10.068;2022-08-04T10:38:41;34.70;73.10
39881;DHT22;25554;44.954;10.068;2022-08-04T10:44:16;34.60;72.00
39881;DHT22;25554;44.954;10.068;2022-08-04T10:47:02;34.10;72.60
39881;DHT22;25554;44.954;10.068;2022-08-04T10:49:45;34.90;72.80
39881;DHT22;25554;44.954;10.068;2022-08-04T10:52:22;34.70;72.20
39881;DHT22;25554;44.954;10.068;2022-08-04T10:57:41;34.70;72.50
39881;DHT22;25554;44.954;10.068;2022-08-04T11:00:17;33.50;71.70
39881;DHT22;25554;44.954;10.068;2022-08-04T11:08:02;35.00;72.20
39881;DHT22;25554;44.954;10.068;2022-08-04T11:10:34;35.00;72.30
39881;DHT22;25554;44.954;10.068;2022-08-04T11:13:05;35.20;72.40
39881;DHT22;25554;44.954;10.068;2022-08-04T11:15:47;35.20;72.70
39881;DHT22;25554;44.954;10.068;2022-08-04T11:21:19;35.60;72.90
39881;DHT22;25554;44.954;10.068;2022-08-04T11:23:55;35.70;72.70
39881;DHT22;25554;44.954;10.068;2022-08-04T11:26:50;35.60;72.60
39881;DHT22;25554;44.954;10.068;2022-08-04T11:30:08;35.50;73.00
39881;DHT22;25554;44.954;10.068;2022-08-04T11:32:19;35.40;72.10
39881;DHT22;25554;44.954;10.068;2022-08-04T11:34:52;35.60;72.60
39881;DHT22;25554;44.954;10.068;2022-08-04T11:37:28;35.40;72.40
39881;DHT22;25554;44.954;10.068;2022-08-04T11:40:03;35.40;72.10
39881;DHT22;25554;44.954;10.068;2022-08-04T11:42:54;35.50;72.40
39881;DHT22;25554;44.954;10.068;2022-08-04T11:45:30;36.10;72.50
39881;DHT22;25554;44.954;10.068;2022-08-04T11:48:10;35.50;71.80
39881;DHT22;25554;44.954;10.068;2022-08-04T11:50:51;35.40;71.10
39881;DHT22;25554;44.954;10.068;2022-08-04T11:53:22;35.30;70.50
39881;DHT22;25554;44.954;10.068;2022-08-04T11:55:51;35.10;70.30
39881;DHT22;25554;44.954;10.068;2022-08-04T11:58:19;35.10;71.20
39881;DHT22;25554;44.954;10.068;2022-08-04T12:04:17;33.40;69.90
39881;DHT22;25554;44.954;10.068;2022-08-04T12:07:04;35.40;71.10
39881;DHT22;25554;44.954;10.068;2022-08-04T12:16:00;36.10;71.40
39881;DHT22;25554;44.954;10.068;2022-08-04T12:18:41;36.40;71.60
39881;DHT22;25554;44.954;10.068;2022-08-04T12:21:16;36.30;71.00
39881;DHT22;25554;44.954;10.068;2022-08-04T12:23:44;36.00;70.60
39881;DHT22;25554;44.954;10.068;2022-08-04T12:26:26;36.00;71.40
39881;DHT22;25554;44.954;10.068;2022-08-04T12:28:59;36.10;71.40
39881;DHT22;25554;44.954;10.068;2022-08-04T12:31:30;36.10;72.30
39881;DHT22;25554;44.954;10.068;2022-08-04T12:34:12;36.20;71.60
39881;DHT22;25554;44.954;10.068;2022-08-04T12:37:08;36.10;71.60
39881;DHT22;25554;44.954;10.068;2022-08-04T12:39:39;36.30;71.80
39881;DHT22;25554;44.954;10.068;2022-08-04T12:42:18;36.30;71.20
39881;DHT22;25554;44.954;10.068;2022-08-04T12:44:48;36.20;71.40
39881;DHT22;25554;44.954;10.068;2022-08-04T12:47:23;35.70;71.20
39881;DHT22;25554;44.954;10.068;2022-08-04T12:49:51;34.70;70.80
39881;DHT22;25554;44.954;10.068;2022-08-04T12:52:19;36.30;71.60
39881;DHT22;25554;44.954;10.068;2022-08-04T12:54:52;36.50;70.90
39881;DHT22;25554;44.954;10.068;2022-08-04T12:57:20;36.40;71.10
39881;DHT22;25554;44.954;10.068;2022-08-04T13:02:30;36.50;71.90
39881;DHT22;25554;44.954;10.068;2022-08-04T13:05:04;36.60;71.50
39881;DHT22;25554;44.954;10.068;2022-08-04T13:07:39;36.70;71.60
39881;DHT22;25554;44.954;10.068;2022-08-04T13:10:12;36.60;71.20
39881;DHT22;25554;44.954;10.068;2022-08-04T13:12:40;36.60;71.60
39881;DHT22;25554;44.954;10.068;2022-08-04T13:15:16;36.70;71.90
39881;DHT22;25554;44.954;10.068;2022-08-04T13:18:01;36.60;71.60
39881;DHT22;25554;44.954;10.068;2022-08-04T13:20:31;36.70;72.20
39881;DHT22;25554;44.954;10.068;2022-08-04T13:23:06;36.80;72.00
39881;DHT22;25554;44.954;10.068;2022-08-04T13:25:35;36.80;70.60
39881;DHT22;25554;44.954;10.068;2022-08-04T13:28:12;36.60;70.80
39881;DHT22;25554;44.954;10.068;2022-08-04T13:33:05;37.00;71.10
39881;DHT22;25554;44.954;10.068;2022-08-04T13:35:33;37.00;70.80
39881;DHT22;25554;44.954;10.068;2022-08-04T13:40:27;37.10;71.20
39881;DHT22;25554;44.954;10.068;2022-08-04T13:42:55;36.90;70.70
39881;DHT22;25554;44.954;10.068;2022-08-04T13:45:23;37.00;70.70
39881;DHT22;25554;44.954;10.068;2022-08-04T13:47:57;36.70;70.90
39881;DHT22;25554;44.954;10.068;2022-08-04T13:50:29;36.80;70.90
39881;DHT22;25554;44.954;10.068;2022-08-04T13:52:59;36.60;70.70
39881;DHT22;25554;44.954;10.068;2022-08-04T13:55:34;36.40;70.90
39881;DHT22;25554;44.954;10.068;2022-08-04T13:58:10;36.70;72.20
39881;DHT22;25554;44.954;10.068;2022-08-04T14:00:48;36.90;71.40
39881;DHT22;25554;44.954;10.068;2022-08-04T14:03:28;37.10;71.20
39881;DHT22;25554;44.954;10.068;2022-08-04T14:06:17;37.40;71.20
39881;DHT22;25554;44.954;10.068;2022-08-04T14:08:57;37.40;71.20
39881;DHT22;25554;44.954;10.068;2022-08-04T14:11:36;35.10;68.90
39881;DHT22;25554;44.954;10.068;2022-08-04T14:14:29;37.10;70.60
39881;DHT22;25554;44.954;10.068;2022-08-04T14:17:09;37.10;71.20
39881;DHT22;25554;44.954;10.068;2022-08-04T14:19:58;37.20;71.00
39881;DHT22;25554;44.954;10.068;2022-08-04T14:25:11;36.50;70.00
39881;DHT22;25554;44.954;10.068;2022-08-04T14:30:24;37.40;70.60
39881;DHT22;25554;44.954;10.068;2022-08-04T14:33:06;37.20;70.70
39881;DHT22;25554;44.954;10.068;2022-08-04T14:35:34;37.50;70.50
39881;DHT22;25554;44.954;10.068;2022-08-04T14:38:05;37.50;70.60
39881;DHT22;25554;44.954;10.068;2022-08-04T14:40:37;37.50;70.20
39881;DHT22;25554;44.954;10.068;2022-08-04T14:43:05;37.70;70.70
39881;DHT22;25554;44.954;10.068;2022-08-04T14:45:37;37.80;70.40
39881;DHT22;25554;44.954;10.068;2022-08-04T14:48:12;37.90;70.20
39881;DHT22;25554;44.954;10.068;2022-08-04T14:50:45;37.90;70.80
39881;DHT22;25554;44.954;10.068;2022-08-04T14:53:20;37.80;70.10
39881;DHT22;25554;44.954;10.068;2022-08-04T14:55:52;38.10;70.50
39881;DHT22;25554;44.954;10.068;2022-08-04T14:58:27;38.10;70.50
39881;DHT22;25554;44.954;10.068;2022-08-04T15:00:58;38.10;70.40
39881;DHT22;25554;44.954;10.068;2022-08-04T15:03:27;38.10;70.00
39881;DHT22;25554;44.954;10.068;2022-08-04T15:05:55;37.60;69.80
39881;DHT22;25554;44.954;10.068;2022-08-04T15:18:10;37.90;71.10
39881;DHT22;25554;44.954;10.068;2022-08-04T15:20:38;38.00;70.50
39881;DHT22;25554;44.954;10.068;2022-08-04T15:23:05;38.10;70.40
39881;DHT22;25554;44.954;10.068;2022-08-04T15:25:36;38.20;70.20
39881;DHT22;25554;44.954;10.068;2022-08-04T15:28:04;38.00;69.90
39881;DHT22;25554;44.954;10.068;2022-08-04T15:30:32;38.10;70.90
39881;DHT22;25554;44.954;10.068;2022-08-04T15:33:00;38.20;70.20
39881;DHT22;25554;44.954;10.068;2022-08-04T15:40:51;37.90;69.50
39881;DHT22;25554;44.954;10.068;2022-08-04T15:48:33;37.90;70.50
39881;DHT22;25554;44.954;10.068;2022-08-04T15:51:03;38.00;70.70
39881;DHT22;25554;44.954;10.068;2022-08-04T16:03:53;37.20;70.40
39881;DHT22;25554;44.954;10.068;2022-08-04T16:16:46;37.20;71.20
39881;DHT22;25554;44.954;10.068;2022-08-04T16:19:30;37.10;70.90
39881;DHT22;25554;44.954;10.068;2022-08-04T16:22:00;37.10;70.80
39881;DHT22;25554;44.954;10.068;2022-08-04T16:24:37;36.90;71.00
39881;DHT22;25554;44.954;10.068;2022-08-04T16:27:06;36.40;71.20
39881;DHT22;25554;44.954;10.068;2022-08-04T16:29:45;37.00;72.30
39881;DHT22;25554;44.954;10.068;2022-08-04T16:32:21;37.10;71.50
39881;DHT22;25554;44.954;10.068;2022-08-04T16:35:00;37.00;71.00
39881;DHT22;25554;44.954;10.068;2022-08-04T16:37:36;36.80;71.30
39881;DHT22;25554;44.954;10.068;2022-08-04T16:40:33;36.60;72.60
39881;DHT22;25554;44.954;10.068;2022-08-04T16:48:20;36.60;71.40
39881;DHT22;25554;44.954;10.068;2022-08-04T16:53:33;36.90;72.30
39881;DHT22;25554;44.954;10.068;2022-08-04T16:58:31;36.80;71.70
39881;DHT22;25554;44.954;10.068;2022-08-04T17:01:09;36.70;71.60
39881;DHT22;25554;44.954;10.068;2022-08-04T17:03:37;36.50;72.30
39881;DHT22;25554;44.954;10.068;2022-08-04T17:06:09;36.80;72.50
39881;DHT22;25554;44.954;10.068;2022-08-04T17:11:04;36.10;72.50
39881;DHT22;25554;44.954;10.068;2022-08-04T17:13:34;36.00;72.80
39881;DHT22;25554;44.954;10.068;2022-08-04T17:16:08;35.80;72.70
39881;DHT22;25554;44.954;10.068;2022-08-04T17:18:39;35.80;72.80
39881;DHT22;25554;44.954;10.068;2022-08-04T17:21:20;35.70;72.80
39881;DHT22;25554;44.954;10.068;2022-08-04T17:23:52;35.60;73.40
39881;DHT22;25554;44.954;10.068;2022-08-04T17:26:22;35.40;73.60
39881;DHT22;25554;44.954;10.068;2022-08-04T17:28:50;35.50;74.10
39881;DHT22;25554;44.954;10.068;2022-08-04T17:31:17;35.30;74.10
39881;DHT22;25554;44.954;10.068;2022-08-04T17:33:49;35.60;74.20
39881;DHT22;25554;44.954;10.068;2022-08-04T17:36:16;35.30;75.10
39881;DHT22;25554;44.954;10.068;2022-08-04T17:38:46;35.10;74.70
39881;DHT22;25554;44.954;10.068;2022-08-04T17:41:14;35.00;75.20
39881;DHT22;25554;44.954;10.068;2022-08-04T17:43:50;34.90;75.40
39881;DHT22;25554;44.954;10.068;2022-08-04T17:46:20;34.80;76.30
39881;DHT22;25554;44.954;10.068;2022-08-04T17:49:30;34.60;77.00
39881;DHT22;25554;44.954;10.068;2022-08-04T17:51:51;34.50;76.80
39881;DHT22;25554;44.954;10.068;2022-08-04T17:54:31;34.30;76.60
39881;DHT22;25554;44.954;10.068;2022-08-04T17:56:59;34.20;76.80
39881;DHT22;25554;44.954;10.068;2022-08-04T17:59:28;34.00;77.20
39881;DHT22;25554;44.954;10.068;2022-08-04T18:02:00;33.90;77.30
39881;DHT22;25554;44.954;10.068;2022-08-04T18:04:38;33.80;77.30
39881;DHT22;25554;44.954;10.068;2022-08-04T18:07:21;33.70;77.80
39881;DHT22;25554;44.954;10.068;2022-08-04T18:09:55;33.50;78.20
39881;DHT22;25554;44.954;10.068;2022-08-04T18:12:27;34.00;79.20
39881;DHT22;25554;44.954;10.068;2022-08-04T18:14:59;33.90;79.80
39881;DHT22;25554;44.954;10.068;2022-08-04T18:17:37;33.20;79.20
39881;DHT22;25554;44.954;10.068;2022-08-04T18:20:06;33.10;79.60
39881;DHT22;25554;44.954;10.068;2022-08-04T18:27:29;30.20;79.00
39881;DHT22;25554;44.954;10.068;2022-08-04T18:29:57;32.70;84.00
39881;DHT22;25554;44.954;10.068;2022-08-04T18:32:24;31.80;84.70
39881;DHT22;25554;44.954;10.068;2022-08-04T19:11:42;30.50;92.20
39881;DHT22;25554;44.954;10.068;2022-08-04T19:19:04;30.90;84.60
39881;DHT22;25554;44.954;10.068;2022-08-04T19:21:31;30.90;84.40
39881;DHT22;25554;44.954;10.068;2022-08-04T19:28:52;30.70;86.70
39881;DHT22;25554;44.954;10.068;2022-08-04T19:41:06;30.30;88.10
39881;DHT22;25554;44.954;10.068;2022-08-04T20:03:08;30.00;89.10
39881;DHT22;25554;44.954;10.068;2022-08-04T20:30:03;29.70;90.30
39881;DHT22;25554;44.954;10.068;2022-08-04T20:37:25;29.50;90.80
39881;DHT22;25554;44.954;10.068;2022-08-04T20:39:54;29.50;91.00
39881;DHT22;25554;44.954;10.068;2022-08-04T20:42:21;29.40;90.70
39881;DHT22;25554;44.954;10.068;2022-08-04T20:54:40;29.00;91.10
39881;DHT22;25554;44.954;10.068;2022-08-04T20:57:07;29.00;91.30
39881;DHT22;25554;44.954;10.068;2022-08-04T21:02:04;28.90;91.50
39881;DHT22;25554;44.954;10.068;2022-08-04T21:07:04;28.80;91.90
39881;DHT22;25554;44.954;10.068;2022-08-04T21:16:58;28.50;92.80
39881;DHT22;25554;44.954;10.068;2022-08-04T21:19:25;28.40;92.90
39881;DHT22;25554;44.954;10.068;2022-08-04T21:21:52;28.20;92.90
39881;DHT22;25554;44.954;10.068;2022-08-04T21:24:19;28.10;93.10
39881;DHT22;25554;44.954;10.068;2022-08-04T21:26:50;28.20;93.30
39881;DHT22;25554;44.954;10.068;2022-08-04T21:29:17;28.10;93.60
39881;DHT22;25554;44.954;10.068;2022-08-04T21:39:04;28.00;94.10
39881;DHT22;25554;44.954;10.068;2022-08-04T21:41:31;28.00;94.00
39881;DHT22;25554;44.954;10.068;2022-08-04T21:43:58;27.60;96.80
39881;DHT22;25554;44.954;10.068;2022-08-04T21:51:20;27.90;94.60
39881;DHT22;25554;44.954;10.068;2022-08-04T21:58:40;27.90;94.50
39881;DHT22;25554;44.954;10.068;2022-08-04T22:01:08;27.80;94.60
39881;DHT22;25554;44.954;10.068;2022-08-04T22:03:39;27.80;94.60
39881;DHT22;25554;44.954;10.068;2022-08-04T22:15:54;27.50;95.40
39881;DHT22;25554;44.954;10.068;2022-08-04T22:30:35;27.30;96.20
39881;DHT22;25554;44.954;10.068;2022-08-04T22:33:03;27.20;96.40
39881;DHT22;25554;44.954;10.068;2022-08-04T22:37:57;26.30;97.20
39881;DHT22;25554;44.954;10.068;2022-08-04T23:12:09;23.40;98.30
39881;DHT22;25554;44.954;10.068;2022-08-04T23:19:29;25.70;99.90
39881;DHT22;25554;44.954;10.068;2022-08-04T23:21:55;26.30;99.50
39881;DHT22;25554;44.954;10.068;2022-08-04T23:39:02;26.30;99.50
39881;DHT22;25554;44.954;10.068;2022-08-04T23:56:11;26.20;99.90
39881;DHT22;25554;44.954;10.068;2022-08-04T23:58:40;26.20;99.90
